Time;durP1;ratioP1;P1;durP2;ratioP2;P2;SDS_P1;SDS_P2;PMS_P1;PMS_P2;Temp;Humidity;BMP_temperature;BMP_pressure;BME280_temperature;BME280_humidity;BME280_pressure;Samples;Min_cycle;Max_cycle;Signal;HPM_P1;HPM_P2
2023/05/14 00:00:57;;;;;;;20.80;15.45;;;;;;;14.83;74.83;101801.69;5033433;28;20058;-48
2023/05/14 00:03:22;;;;;;;21.90;16.25;;;;;;;14.76;75.61;101812.44;5033488;28;20047;-45
2023/05/14 00:05:47;;;;;;;23.45;17.20;;;;;;;14.83;75.84;101804.47;5033333;28;20465;-44
2023/05/14 00:08:13;;;;;;;22.65;15.90;;;;;;;14.70;75.75;101797.78;5033706;28;20029;-48
2023/05/14 00:10:38;;;;;;;22.92;15.23;;;;;;;14.64;76.11;101802.59;5033849;28;20484;-43
2023/05/14 00:13:03;;;;;;;22.45;15.40;;;;;;;14.60;76.40;101796.00;5033498;28;20033;-46
2023/05/14 00:15:29;;;;;;;23.13;16.60;;;;;;;14.64;76.55;101787.88;5033370;28;20033;-46
2023/05/14 00:17:54;;;;;;;21.52;15.93;;;;;;;14.54;76.92;101797.25;5033497;28;20045;-44
2023/05/14 00:20:19;;;;;;;23.60;17.15;;;;;;;14.50;77.27;101788.69;5032754;28;20048;-46
2023/05/14 00:22:45;;;;;;;23.75;16.45;;;;;;;14.48;77.42;101802.09;5033957;28;20044;-44
2023/05/14 00:25:10;;;;;;;23.05;16.20;;;;;;;14.41;77.74;101796.13;5033609;28;20445;-46
2023/05/14 00:27:36;;;;;;;21.85;16.40;;;;;;;14.34;78.53;101798.50;5033712;28;20065;-45
2023/05/14 00:30:03;;;;;;;23.52;16.50;;;;;;;14.33;79.27;101786.53;5033557;28;20452;-46
2023/05/14 00:32:28;;;;;;;21.90;15.57;;;;;;;14.30;79.33;101792.72;5033424;28;20057;-45
2023/05/14 00:34:54;;;;;;;22.33;16.58;;;;;;;14.20;79.97;101799.28;5026167;28;20801;-45
2023/05/14 00:37:19;;;;;;;22.65;16.38;;;;;;;14.14;80.35;101788.56;5033294;28;20510;-47
2023/05/14 00:39:44;;;;;;;23.70;16.63;;;;;;;14.04;80.75;101792.38;5032570;28;20061;-43
2023/05/14 00:42:10;;;;;;;21.55;16.77;;;;;;;13.97;81.51;101780.84;5033178;28;20040;-44
2023/05/14 00:44:35;;;;;;;23.67;17.70;;;;;;;13.88;82.43;101783.47;5032939;28;20091;-44
2023/05/14 00:47:00;;;;;;;23.45;17.10;;;;;;;13.83;82.76;101783.59;5033230;28;20057;-45
2023/05/14 00:49:27;;;;;;;24.00;17.95;;;;;;;13.71;83.48;101782.13;5033247;28;20391;-44
2023/05/14 00:51:53;;;;;;;23.10;17.48;;;;;;;13.68;84.19;101776.34;5033106;28;20042;-44
2023/05/14 00:54:18;;;;;;;24.17;17.83;;;;;;;13.64;84.54;101773.34;5033056;28;20021;-44
2023/05/14 00:56:44;;;;;;;25.45;18.42;;;;;;;13.57;84.47;101776.50;5033057;28;20033;-44
2023/05/14 00:59:10;;;;;;;23.55;18.20;;;;;;;13.46;85.66;101766.69;5032987;28;20022;-44
2023/05/14 01:01:36;;;;;;;25.45;19.02;;;;;;;13.39;86.45;101763.47;5032493;28;20032;-45
2023/05/14 01:04:01;;;;;;;23.73;18.95;;;;;;;13.43;86.25;101772.03;5032277;28;20040;-47
2023/05/14 01:06:54;;;;;;;24.98;18.23;;;;;;;13.39;85.53;101769.84;5032005;28;20026;-47
2023/05/14 01:09:29;;;;;;;26.17;18.77;;;;;;;13.38;86.53;101775.69;5032373;28;20037;-44
2023/05/14 01:12:16;;;;;;;23.83;18.23;;;;;;;13.29;86.36;101764.41;5032630;28;20056;-45
2023/05/14 01:15:03;;;;;;;24.45;18.90;;;;;;;13.24;87.14;101759.75;5032795;28;20041;-47
2023/05/14 01:17:32;;;;;;;26.05;19.38;;;;;;;13.17;87.97;101762.09;5032537;28;20033;-46
2023/05/14 01:19:59;;;;;;;24.63;19.55;;;;;;;13.09;88.50;101771.13;5032622;28;20034;-46
2023/05/14 01:22:24;;;;;;;24.42;19.23;;;;;;;13.02;88.79;101773.47;5032322;28;20499;-48
2023/05/14 01:24:49;;;;;;;25.30;18.88;;;;;;;12.98;89.91;101764.91;5032587;28;20037;-45
2023/05/14 01:27:30;;;;;;;24.65;19.23;;;;;;;12.99;89.40;101766.53;5032143;28;20033;-47
2023/05/14 01:30:23;;;;;;;24.55;19.55;;;;;;;12.88;89.96;101768.63;5031996;28;20068;-46
2023/05/14 01:32:53;;;;;;;25.80;19.40;;;;;;;12.93;90.21;101767.75;5031509;28;20026;-46
2023/05/14 01:35:23;;;;;;;26.23;19.65;;;;;;;12.89;90.43;101763.94;5026530;28;20037;-44
2023/05/14 01:37:49;;;;;;;26.02;20.60;;;;;;;12.83;90.43;101754.00;5031424;28;20405;-45
2023/05/14 01:40:15;;;;;;;26.02;20.20;;;;;;;12.85;90.76;101748.97;5032112;28;20061;-44
2023/05/14 01:42:42;;;;;;;25.73;19.92;;;;;;;12.80;91.13;101758.19;5031814;28;20072;-45
2023/05/14 01:45:08;;;;;;;26.23;20.15;;;;;;;12.82;90.87;101753.19;5031831;28;20029;-45
2023/05/14 01:47:33;;;;;;;25.90;20.35;;;;;;;12.78;90.92;101754.91;5032076;28;20063;-43
2023/05/14 01:49:58;;;;;;;25.23;19.83;;;;;;;12.78;91.21;101761.28;5031738;28;20037;-47
2023/05/14 01:52:23;;;;;;;27.25;20.83;;;;;;;12.72;91.34;101756.91;5031894;28;20109;-45
2023/05/14 01:54:49;;;;;;;26.10;20.23;;;;;;;12.73;90.90;101766.91;5031962;28;20541;-45
2023/05/14 01:57:14;;;;;;;26.17;20.55;;;;;;;12.67;91.50;101761.69;5031909;28;20199;-44
2023/05/14 01:59:39;;;;;;;26.02;19.88;;;;;;;12.72;91.81;101754.13;5031551;28;20040;-47
2023/05/14 02:02:05;;;;;;;26.83;21.08;;;;;;;12.65;91.57;101750.91;5031320;28;20104;-45
2023/05/14 02:04:30;;;;;;;26.50;20.55;;;;;;;12.61;92.11;101750.69;5031166;28;20028;-45
2023/05/14 02:06:55;;;;;;;27.58;20.85;;;;;;;12.55;92.09;101745.50;5042360;28;20041;-45
2023/05/14 02:09:20;;;;;;;27.92;21.50;;;;;;;12.55;92.36;101749.09;5051396;28;20021;-45
2023/05/14 02:11:46;;;;;;;27.45;21.27;;;;;;;12.55;92.66;101749.09;5050723;28;20108;-47
2023/05/14 02:14:11;;;;;;;26.10;21.00;;;;;;;12.52;92.41;101746.06;5051345;28;20510;-44
2023/05/14 02:16:36;;;;;;;26.88;21.08;;;;;;;12.39;93.08;101740.16;5051322;28;20037;-43
2023/05/14 02:19:02;;;;;;;28.33;21.95;;;;;;;12.47;93.79;101744.19;5051246;28;20422;-43
2023/05/14 02:21:27;;;;;;;26.73;21.00;;;;;;;12.43;93.97;101741.19;5051329;28;20035;-47
2023/05/14 02:23:52;;;;;;;26.75;21.95;;;;;;;12.29;94.12;101737.50;5050060;28;20032;-44
2023/05/14 02:26:17;;;;;;;26.42;20.85;;;;;;;12.33;93.67;101747.69;5051383;28;20063;-46
2023/05/14 02:28:44;;;;;;;27.70;22.02;;;;;;;12.27;94.81;101742.50;5051210;28;20392;-44
2023/05/14 02:31:09;;;;;;;26.98;20.92;;;;;;;12.20;94.50;101742.03;5051573;28;20033;-47
2023/05/14 02:33:34;;;;;;;27.60;22.15;;;;;;;12.11;94.82;101737.16;5051004;28;20032;-44
2023/05/14 02:36:00;;;;;;;26.17;21.65;;;;;;;12.08;95.46;101737.72;5044043;28;20051;-45
2023/05/14 02:38:25;;;;;;;27.65;21.65;;;;;;;12.10;95.61;101734.66;5049934;28;20380;-45
2023/05/14 02:40:50;;;;;;;27.48;22.65;;;;;;;12.04;96.19;101731.13;5051223;28;20070;-47
2023/05/14 02:43:16;;;;;;;26.88;21.55;;;;;;;12.04;96.31;101739.44;5050311;28;20082;-44
2023/05/14 02:45:41;;;;;;;27.77;22.20;;;;;;;11.99;96.87;101736.72;5050980;28;20049;-44
2023/05/14 02:48:07;;;;;;;27.15;22.13;;;;;;;11.91;96.93;101740.91;5049630;28;20392;-45
2023/05/14 02:50:32;;;;;;;28.23;22.50;;;;;;;11.89;96.87;101743.19;5051020;28;20079;-44
2023/05/14 02:52:57;;;;;;;27.67;22.95;;;;;;;11.93;97.74;101746.19;5051372;28;20037;-44
2023/05/14 02:55:25;;;;;;;30.60;23.15;;;;;;;11.81;97.93;101738.25;5051027;28;20452;-46
2023/05/14 02:57:52;;;;;;;27.33;22.85;;;;;;;11.78;98.64;101739.66;5051059;28;20068;-44
2023/05/14 03:00:17;;;;;;;28.42;22.98;;;;;;;11.76;98.46;101741.09;5051078;28;20029;-44
2023/05/14 03:02:43;;;;;;;27.90;23.48;;;;;;;11.73;99.39;101748.03;5050346;28;20574;-43
2023/05/14 03:05:08;;;;;;;28.92;23.13;;;;;;;11.64;99.52;101744.25;5050491;28;20345;-45
2023/05/14 03:07:34;;;;;;;29.00;23.70;;;;;;;11.53;100.00;101737.94;5050711;28;20082;-45
2023/05/14 03:09:59;;;;;;;28.60;23.83;;;;;;;11.51;99.78;101743.81;5049725;28;20079;-46
2023/05/14 03:12:24;;;;;;;27.83;23.73;;;;;;;11.46;100.00;101731.94;5050193;28;20029;-45
2023/05/14 03:14:50;;;;;;;30.13;24.70;;;;;;;11.46;100.00;101726.38;5050263;28;20798;-46
2023/05/14 03:17:15;;;;;;;29.25;24.38;;;;;;;11.47;100.00;101728.03;5050521;28;20385;-48
2023/05/14 03:19:40;;;;;;;28.83;23.63;;;;;;;11.48;100.00;101729.69;5050080;28;20051;-47
2023/05/14 03:22:06;;;;;;;31.85;24.90;;;;;;;11.47;100.00;101726.13;5050260;28;20028;-45
2023/05/14 03:24:31;;;;;;;31.85;23.83;;;;;;;11.46;100.00;101730.00;5050515;28;20551;-44
2023/05/14 03:26:56;;;;;;;30.08;24.15;;;;;;;11.46;100.00;101720.84;5050551;28;20029;-46
2023/05/14 03:29:21;;;;;;;29.40;23.60;;;;;;;11.46;100.00;101718.06;5050324;28;20029;-46
2023/05/14 03:31:47;;;;;;;28.60;23.85;;;;;;;11.42;100.00;101723.38;5050363;28;20025;-46
2023/05/14 03:34:12;;;;;;;30.45;24.80;;;;;;;11.37;100.00;101718.72;5043283;28;20025;-46
2023/05/14 03:36:38;;;;;;;31.02;26.08;;;;;;;11.26;100.00;101719.91;5049996;28;20029;-45
2023/05/14 03:39:05;;;;;;;30.27;25.38;;;;;;;11.29;100.00;101713.78;5050310;28;20108;-46
2023/05/14 03:41:33;;;;;;;32.47;25.83;;;;;;;11.27;100.00;101715.19;5050014;28;20078;-46
2023/05/14 03:43:59;;;;;;;33.00;27.20;;;;;;;11.28;100.00;101711.31;5050278;28;20120;-46
2023/05/14 03:46:24;;;;;;;30.90;26.88;;;;;;;11.15;100.00;101715.56;5050085;28;20113;-44
2023/05/14 03:48:49;;;;;;;30.83;25.15;;;;;;;11.17;100.00;101710.56;5049741;28;20365;-46
2023/05/14 03:51:15;;;;;;;33.30;27.63;;;;;;;11.06;100.00;101729.19;5049889;28;20503;-45
2023/05/14 03:53:40;;;;;;;33.35;27.00;;;;;;;11.09;100.00;101725.88;5051605;28;20039;-43
2023/05/14 03:56:06;;;;;;;31.92;27.08;;;;;;;11.05;100.00;101727.53;5053931;28;20450;-44
2023/05/14 03:58:31;;;;;;;33.92;28.50;;;;;;;10.97;100.00;101715.13;5054018;28;20024;-47
2023/05/14 04:00:56;;;;;;;34.33;27.52;;;;;;;10.94;100.00;101718.50;5053764;28;20120;-44
2023/05/14 04:03:22;;;;;;;32.13;27.45;;;;;;;11.02;100.00;101712.34;5053434;28;20029;-47
2023/05/14 04:05:47;;;;;;;35.67;28.05;;;;;;;10.89;100.00;101710.19;5053662;28;20025;-45
2023/05/14 04:08:12;;;;;;;35.97;27.60;;;;;;;10.82;100.00;101718.81;5053601;28;20468;-45
2023/05/14 04:10:38;;;;;;;32.22;25.85;;;;;;;10.87;100.00;101715.19;5053556;28;20063;-45
2023/05/14 04:13:03;;;;;;;32.85;25.88;;;;;;;10.84;100.00;101710.25;5053727;28;20036;-47
2023/05/14 04:15:28;;;;;;;36.10;26.80;;;;;;;10.84;100.00;101713.03;5053501;28;20413;-48
2023/05/14 04:17:54;;;;;;;34.17;28.27;;;;;;;10.79;100.00;101705.56;5053588;28;20067;-45
2023/05/14 04:20:19;;;;;;;33.42;26.85;;;;;;;10.76;100.00;101718.06;5053649;28;20119;-45
2023/05/14 04:22:44;;;;;;;33.45;26.15;;;;;;;10.85;100.00;101715.50;5053601;28;20107;-47
2023/05/14 04:25:09;;;;;;;34.60;27.08;;;;;;;10.81;100.00;101717.19;5053101;28;20025;-45
2023/05/14 04:27:35;;;;;;;35.20;27.83;;;;;;;10.75;100.00;101716.41;5052629;28;20404;-43
2023/05/14 04:30:00;;;;;;;37.47;28.00;;;;;;;10.70;100.00;101704.53;5053125;28;20434;-45
2023/05/14 04:32:26;;;;;;;33.50;27.50;;;;;;;10.66;100.00;101706.19;5053301;28;20067;-45
2023/05/14 04:34:51;;;;;;;36.88;28.27;;;;;;;10.66;100.00;101707.03;5044931;28;20060;-46
2023/05/14 04:37:16;;;;;;;34.65;27.08;;;;;;;10.66;100.00;101707.03;5053352;28;20040;-44
2023/05/14 04:39:42;;;;;;;35.47;27.48;;;;;;;10.60;100.00;101702.63;5053148;28;20389;-45
2023/05/14 04:42:07;;;;;;;35.50;27.17;;;;;;;10.68;100.00;101701.22;5052210;28;20064;-45
2023/05/14 04:44:33;;;;;;;36.20;28.23;;;;;;;10.71;100.00;101707.00;5052793;28;20118;-45
2023/05/14 04:46:59;;;;;;;36.67;28.60;;;;;;;10.76;100.00;101706.13;5052937;28;20178;-45
2023/05/14 04:49:24;;;;;;;36.72;28.25;;;;;;;10.76;100.00;101706.13;5052495;28;20033;-43
2023/05/14 04:51:50;;;;;;;35.85;28.75;;;;;;;10.71;100.00;101707.00;5053013;28;20519;-45
2023/05/14 04:54:15;;;;;;;40.03;28.27;;;;;;;10.75;100.00;101715.56;5052799;28;20484;-44
2023/05/14 04:56:40;;;;;;;36.40;28.42;;;;;;;10.72;100.00;101716.97;5053219;28;20033;-44
2023/05/14 04:59:05;;;;;;;34.10;27.27;;;;;;;10.74;100.00;101716.66;5052829;28;20021;-49
2023/05/14 05:01:31;;;;;;;35.78;27.70;;;;;;;10.75;100.00;101718.31;5052809;28;20040;-45
2023/05/14 05:03:56;;;;;;;33.30;26.35;;;;;;;10.74;100.00;101719.44;5052577;28;20036;-45
2023/05/14 05:06:22;;;;;;;33.33;27.17;;;;;;;10.80;100.00;101723.00;5052025;28;20025;-44
2023/05/14 05:08:47;;;;;;;36.05;27.98;;;;;;;10.73;100.00;101710.31;5052663;28;20392;-45
2023/05/14 05:11:12;;;;;;;35.35;27.60;;;;;;;10.71;100.00;101722.78;5051424;28;20124;-47
2023/05/14 05:13:37;;;;;;;37.55;27.75;;;;;;;10.70;100.00;101721.13;5051357;28;20025;-45
2023/05/14 05:16:03;;;;;;;34.40;26.92;;;;;;;10.77;100.00;101727.97;5052579;28;20033;-44
2023/05/14 05:18:28;;;;;;;34.70;27.95;;;;;;;10.89;100.00;101732.34;5052062;28;20124;-44
2023/05/14 05:20:54;;;;;;;35.95;27.30;;;;;;;10.93;100.00;101727.91;5052385;28;20365;-46
2023/05/14 05:23:19;;;;;;;36.40;27.83;;;;;;;11.01;100.00;101724.53;5052778;28;20036;-47
2023/05/14 05:25:44;;;;;;;37.55;28.38;;;;;;;11.05;100.00;101728.34;5052300;28;20499;-46
2023/05/14 05:28:10;;;;;;;38.03;28.15;;;;;;;11.08;100.00;101725.03;5052238;28;20127;-45
2023/05/14 05:30:35;;;;;;;35.00;27.10;;;;;;;11.24;100.00;101736.00;5052429;28;20029;-46
2023/05/14 05:33:00;;;;;;;34.40;27.98;;;;;;;11.24;100.00;101730.47;5051674;28;20272;-46
2023/05/14 05:35:26;;;;;;;36.60;28.13;;;;;;;11.26;100.00;101730.97;5046271;28;20037;-46
2023/05/14 05:37:51;;;;;;;38.03;27.80;;;;;;;11.37;100.00;101723.44;5052231;28;20135;-46
2023/05/14 05:40:16;;;;;;;36.22;27.80;;;;;;;11.43;100.00;101727.00;5052298;28;20029;-46
2023/05/14 05:42:42;;;;;;;34.90;26.77;;;;;;;11.49;100.00;101721.09;5052114;28;20045;-45
2023/05/14 05:45:08;;;;;;;34.33;27.13;;;;;;;11.57;100.00;101727.13;5052128;28;20040;-44
2023/05/14 05:47:33;;;;;;;34.22;27.05;;;;;;;11.64;100.00;101733.16;5052212;28;20021;-44
2023/05/14 05:49:58;;;;;;;36.05;26.85;;;;;;;11.63;100.00;101735.09;5051864;28;20032;-45
2023/05/14 05:52:24;;;;;;;35.88;27.55;;;;;;;11.63;100.00;101734.28;5052064;28;20108;-47
2023/05/14 05:54:49;;;;;;;35.30;28.30;;;;;;;11.60;100.00;101732.09;5052158;28;20095;-47
2023/05/14 05:57:14;;;;;;;34.15;27.35;;;;;;;11.60;100.00;101727.38;5052028;28;20036;-45
2023/05/14 05:59:40;;;;;;;34.92;27.42;;;;;;;11.66;100.00;101736.47;5051971;28;20128;-45
2023/05/14 06:02:05;;;;;;;37.03;28.42;;;;;;;11.66;100.00;101739.25;5051735;28;20025;-45
2023/05/14 06:04:31;;;;;;;37.13;29.05;;;;;;;11.68;100.00;101739.75;5051855;28;20025;-45
2023/05/14 06:06:56;;;;;;;37.00;28.88;;;;;;;11.78;100.00;101742.44;5051470;28;20037;-45
2023/05/14 06:09:21;;;;;;;35.60;27.88;;;;;;;11.80;100.00;101742.16;5052007;28;20040;-44
2023/05/14 06:11:46;;;;;;;36.17;28.92;;;;;;;11.73;100.00;101739.72;5051794;28;20029;-46
2023/05/14 06:14:12;;;;;;;36.30;27.73;;;;;;;11.78;100.00;101749.94;5051813;28;20028;-44
2023/05/14 06:16:37;;;;;;;37.75;30.45;;;;;;;11.80;100.00;101744.94;5052011;28;20037;-46
2023/05/14 06:19:02;;;;;;;36.67;27.80;;;;;;;11.93;100.00;101751.75;5044883;28;20032;-44
2023/05/14 06:21:28;;;;;;;36.67;28.33;;;;;;;12.07;100.00;101752.72;5042815;28;20410;-44
2023/05/14 06:23:53;;;;;;;34.63;26.42;;;;;;;12.26;100.00;101744.47;5043132;28;20536;-44
2023/05/14 06:26:18;;;;;;;34.40;27.40;;;;;;;12.37;100.00;101749.91;5040599;28;20028;-48
2023/05/14 06:28:44;;;;;;;33.25;27.05;;;;;;;12.53;100.00;101751.34;5040974;28;20021;-49
2023/05/14 06:31:09;;;;;;;34.83;27.40;;;;;;;12.62;100.00;101749.56;5041099;28;20025;-44
2023/05/14 06:33:34;;;;;;;32.75;26.75;;;;;;;12.82;100.00;101752.34;5050455;28;20039;-46
2023/05/14 06:36:04;;;;;;;32.70;25.85;;;;;;;12.87;100.00;101743.94;5050134;28;20471;-44
2023/05/14 06:38:29;;;;;;;32.22;25.92;;;;;;;12.99;99.98;101749.06;5050107;28;20427;-44
2023/05/14 06:40:54;;;;;;;33.75;25.38;;;;;;;13.06;100.00;101752.28;5050098;28;20083;-46
2023/05/14 06:43:20;;;;;;;35.25;26.05;;;;;;;13.18;99.17;101743.47;5049998;28;20116;-46
2023/05/14 06:45:51;;;;;;;34.38;27.08;;;;;;;13.13;98.55;101755.50;5050181;28;20036;-44
2023/05/14 06:48:17;;;;;;;33.45;26.00;;;;;;;13.02;99.26;101757.59;5050286;28;20036;-45
2023/05/14 06:50:43;;;;;;;33.50;26.15;;;;;;;12.98;99.86;101747.41;5050178;28;20025;-47
2023/05/14 06:53:09;;;;;;;32.33;25.33;;;;;;;13.00;98.79;101740.41;5050199;28;20025;-46
2023/05/14 06:55:34;;;;;;;34.00;25.80;;;;;;;13.10;98.75;101743.03;5049900;28;20060;-43
2023/05/14 06:58:00;;;;;;;31.13;25.00;;;;;;;13.17;98.34;101748.22;5049738;28;20097;-48
2023/05/14 07:00:25;;;;;;;32.80;25.00;;;;;;;13.26;98.93;101745.59;5049175;28;20074;-46
2023/05/14 07:02:50;;;;;;;32.50;25.25;;;;;;;13.33;98.38;101745.19;5048522;28;20107;-45
2023/05/14 07:05:16;;;;;;;36.63;29.20;;;;;;;13.29;97.95;101749.72;5046098;28;20065;-45
2023/05/14 07:07:41;;;;;;;33.05;24.70;;;;;;;13.39;98.35;101742.06;5049770;28;20477;-44
2023/05/14 07:10:07;;;;;;;32.08;25.52;;;;;;;13.40;97.51;101738.16;5049898;28;20083;-45
2023/05/14 07:12:32;;;;;;;31.95;25.25;;;;;;;13.38;98.04;101743.16;5049835;28;20388;-45
2023/05/14 07:14:57;;;;;;;32.90;24.98;;;;;;;13.52;97.98;101745.19;5048660;28;20048;-44
2023/05/14 07:17:23;;;;;;;33.50;25.80;;;;;;;13.55;97.69;101744.59;5048409;28;20032;-45
2023/05/14 07:19:48;;;;;;;32.58;24.60;;;;;;;13.62;96.56;101746.94;5048072;28;20135;-44
2023/05/14 07:22:13;;;;;;;33.25;25.10;;;;;;;13.72;96.29;101744.00;5048745;28;20033;-44
2023/05/14 07:24:38;;;;;;;32.72;25.25;;;;;;;13.73;96.30;101740.09;5046128;28;20047;-48
2023/05/14 07:27:05;;;;;;;31.75;25.30;;;;;;;13.73;96.90;101740.94;5044563;28;20040;-48
2023/05/14 07:29:30;;;;;;;31.63;25.55;;;;;;;13.89;96.73;101746.19;5051635;28;20062;-43
2023/05/14 07:31:55;;;;;;;31.50;25.33;;;;;;;13.95;96.65;101750.53;5052859;28;20492;-43
2023/05/14 07:34:20;;;;;;;33.70;26.05;;;;;;;14.16;96.47;101745.41;5052814;28;20480;-45
2023/05/14 07:36:46;;;;;;;32.85;25.52;;;;;;;14.32;95.46;101736.75;5052931;28;20041;-47
2023/05/14 07:39:11;;;;;;;31.70;25.02;;;;;;;14.40;95.45;101730.44;5051210;28;20064;-46
2023/05/14 07:41:37;;;;;;;32.30;25.23;;;;;;;14.59;96.11;101732.28;5052663;28;20075;-44
2023/05/14 07:44:02;;;;;;;34.55;25.80;;;;;;;14.66;94.08;101739.09;5052357;28;20021;-49
2023/05/14 07:46:27;;;;;;;32.22;24.85;;;;;;;14.60;92.66;101737.53;5051663;28;20029;-45
2023/05/14 07:48:53;;;;;;;31.45;23.88;;;;;;;14.62;93.28;101729.69;5051790;28;20025;-44
2023/05/14 07:51:18;;;;;;;31.67;24.92;;;;;;;14.57;92.13;101732.59;5051045;28;20033;-44
2023/05/14 07:53:43;;;;;;;30.50;24.02;;;;;;;14.68;92.57;101732.41;5051087;28;20025;-45
2023/05/14 07:56:09;;;;;;;29.88;23.33;;;;;;;14.71;90.51;101735.38;5052099;28;20519;-44
2023/05/14 07:58:34;;;;;;;30.75;24.05;;;;;;;14.82;90.29;101753.53;5052363;28;20033;-45
2023/05/14 08:01:00;;;;;;;31.20;24.83;;;;;;;14.81;91.53;101739.88;5052287;28;20036;-44
2023/05/14 08:03:26;;;;;;;30.13;24.42;;;;;;;14.79;92.92;101733.78;5051882;28;20071;-44
2023/05/14 08:05:51;;;;;;;32.75;23.95;;;;;;;14.84;91.49;101736.47;5052046;28;20021;-45
2023/05/14 08:08:17;;;;;;;31.20;23.40;;;;;;;14.95;91.33;101729.53;5052177;28;20056;-46
2023/05/14 08:10:42;;;;;;;29.50;23.05;;;;;;;14.93;88.18;101740.19;5052183;28;20049;-44
2023/05/14 08:13:07;;;;;;;32.40;23.02;;;;;;;15.02;89.82;101745.00;5051849;28;20171;-44
2023/05/14 08:15:32;;;;;;;31.50;22.67;;;;;;;15.21;88.64;101739.25;5050358;28;20043;-44
2023/05/14 08:18:02;;;;;;;30.55;23.30;;;;;;;15.21;88.42;101740.06;5052134;28;20032;-48
2023/05/14 08:20:28;;;;;;;29.75;23.77;;;;;;;15.32;89.18;101740.63;5052162;28;20082;-46
2023/05/14 08:22:53;;;;;;;30.92;23.20;;;;;;;15.43;88.31;101742.03;5049508;28;20021;-48
2023/05/14 08:25:18;;;;;;;27.63;21.42;;;;;;;15.59;86.55;101739.69;5046156;28;20036;-45
2023/05/14 08:27:44;;;;;;;30.55;21.83;;;;;;;15.53;86.62;101746.53;5050540;28;20389;-46
2023/05/14 08:30:10;;;;;;;30.02;22.35;;;;;;;15.41;87.82;101743.50;5051496;28;20036;-46
2023/05/14 08:32:37;;;;;;;28.98;22.40;;;;;;;15.50;86.91;101737.97;5052728;28;20037;-49
2023/05/14 08:35:03;;;;;;;28.20;21.60;;;;;;;15.50;84.47;101741.59;5052334;28;20056;-46
2023/05/14 08:37:28;;;;;;;28.90;21.30;;;;;;;15.64;83.20;101740.69;5052218;28;20025;-48
2023/05/14 08:39:55;;;;;;;27.83;20.75;;;;;;;15.84;83.66;101736.56;5050132;28;20049;-45
2023/05/14 08:42:23;;;;;;;27.08;21.20;;;;;;;15.51;79.56;101734.03;5051270;28;20021;-46
2023/05/14 08:45:00;;;;;;;28.25;20.65;;;;;;;15.65;78.38;101739.53;5051329;28;20025;-44
2023/05/14 08:47:28;;;;;;;27.25;20.48;;;;;;;15.89;78.48;101736.41;5048013;28;20025;-45
2023/05/14 08:50:05;;;;;;;27.52;20.60;;;;;;;16.11;77.86;101726.34;5031715;28;20033;-46
2023/05/14 08:52:30;;;;;;;27.80;20.88;;;;;;;16.22;76.67;101725.72;5031392;28;20036;-46
2023/05/14 08:54:59;;;;;;;26.60;20.33;;;;;;;16.39;77.31;101726.91;5031235;28;20033;-46
2023/05/14 08:57:25;;;;;;;27.90;20.90;;;;;;;16.41;76.31;101719.03;5031349;28;20472;-45
2023/05/14 08:59:51;;;;;;;27.52;20.15;;;;;;;16.61;77.09;101722.34;5031311;28;20025;-45
2023/05/14 09:02:21;;;;;;;26.20;19.70;;;;;;;16.80;76.00;101716.47;5030888;28;20052;-45
2023/05/14 09:04:49;;;;;;;27.48;19.33;;;;;;;16.99;74.87;101711.44;5031055;28;20048;-45
2023/05/14 09:07:14;;;;;;;25.85;19.25;;;;;;;17.09;75.11;101715.03;5029239;28;20156;-47
2023/05/14 09:09:40;;;;;;;25.50;19.30;;;;;;;17.17;72.94;101711.41;5030402;28;20105;-46
2023/05/14 09:12:06;;;;;;;26.92;19.67;;;;;;;17.22;74.45;101708.44;5030624;28;20477;-46
2023/05/14 09:14:32;;;;;;;27.30;19.65;;;;;;;17.27;74.85;101701.84;5029015;28;20465;-45
2023/05/14 09:16:58;;;;;;;27.38;20.48;;;;;;;17.31;74.82;101702.84;5031654;28;20029;-47
2023/05/14 09:19:23;;;;;;;26.35;19.58;;;;;;;17.24;75.23;101699.72;5048812;28;20036;-45
2023/05/14 09:21:49;;;;;;;28.05;20.00;;;;;;;17.29;75.75;101699.53;5047520;28;20503;-47
2023/05/14 09:24:19;;;;;;;26.58;20.15;;;;;;;17.38;74.46;101686.38;5048832;28;20408;-45
2023/05/14 09:26:49;;;;;;;25.63;19.52;;;;;;;17.52;73.44;101690.97;5048761;28;20029;-45
2023/05/14 09:29:14;;;;;;;24.90;17.88;;;;;;;17.63;70.59;101695.00;5048614;28;20093;-48
2023/05/14 09:31:40;;;;;;;26.77;18.83;;;;;;;17.74;72.75;101682.31;5047197;28;20036;-48
2023/05/14 09:34:05;;;;;;;25.77;19.83;;;;;;;17.73;70.63;101685.44;5050234;28;20039;-46
2023/05/14 09:36:33;;;;;;;26.48;18.50;;;;;;;17.84;71.90;101695.13;5049999;28;20476;-45
2023/05/14 09:38:59;;;;;;;25.60;19.05;;;;;;;17.76;70.02;101685.59;5049847;28;20115;-47
2023/05/14 09:41:25;;;;;;;27.13;18.45;;;;;;;17.82;71.33;101686.25;5050041;28;20041;-45
2023/05/14 09:43:50;;;;;;;27.17;19.45;;;;;;;17.84;72.31;101681.13;5050080;28;20036;-43
2023/05/14 09:46:16;;;;;;;25.90;20.23;;;;;;;17.83;72.71;101682.28;5049849;28;20040;-45
2023/05/14 09:48:42;;;;;;;25.77;18.13;;;;;;;17.89;70.57;101672.53;5050010;28;20032;-46
2023/05/14 09:51:09;;;;;;;26.27;19.17;;;;;;;17.97;71.61;101687.69;5046349;28;20313;-45
2023/05/14 09:53:34;;;;;;;24.55;19.00;;;;;;;17.95;71.36;101667.56;5047425;28;20035;-44
2023/05/14 09:56:00;;;;;;;25.50;18.55;;;;;;;18.10;71.95;101677.41;5045557;28;20408;-45
2023/05/14 09:58:25;;;;;;;25.13;19.27;;;;;;;18.12;72.65;101677.06;5049912;28;20031;-47
2023/05/14 10:00:51;;;;;;;26.58;18.70;;;;;;;18.12;72.14;101672.31;5049190;28;20382;-46
2023/05/14 10:03:19;;;;;;;25.70;18.33;;;;;;;18.21;72.01;101681.47;5049134;28;20476;-47
2023/05/14 10:05:46;;;;;;;29.10;18.73;;;;;;;18.31;70.80;101679.44;5049899;28;20055;-47
2023/05/14 10:08:23;;;;;;;24.95;17.75;;;;;;;18.45;71.30;101674.38;5049875;28;20036;-44
2023/05/14 10:10:51;;;;;;;24.40;17.63;;;;;;;18.41;70.59;101684.66;5049811;28;20048;-49
2023/05/14 10:13:21;;;;;;;24.85;17.42;;;;;;;18.46;71.21;101666.81;5049550;28;20060;-46
2023/05/14 10:15:50;;;;;;;25.77;18.42;;;;;;;18.43;68.63;101668.28;5047898;28;20025;-47
2023/05/14 10:18:18;;;;;;;26.05;18.75;;;;;;;18.55;68.58;101662.78;5049733;28;20135;-46
2023/05/14 10:20:52;;;;;;;25.08;17.60;;;;;;;18.64;69.42;101667.50;5049523;28;20388;-47
2023/05/14 10:23:17;;;;;;;24.15;17.90;;;;;;;18.81;69.14;101669.34;5049441;28;20079;-45
2023/05/14 10:25:43;;;;;;;23.20;17.80;;;;;;;18.86;68.22;101663.50;5039214;28;20030;-46
2023/05/14 10:28:09;;;;;;;23.08;16.55;;;;;;;18.84;66.77;101663.88;5029553;28;20029;-46
2023/05/14 10:30:34;;;;;;;24.48;17.65;;;;;;;18.86;65.51;101655.94;5026366;28;20094;-45
2023/05/14 10:33:11;;;;;;;23.63;17.02;;;;;;;19.02;66.13;101660.94;5031396;28;20051;-44
2023/05/14 10:35:55;;;;;;;23.42;17.30;;;;;;;19.15;66.94;101654.22;5031515;28;20079;-45
2023/05/14 10:38:38;;;;;;;24.13;17.05;;;;;;;19.26;64.29;101656.59;5031343;28;20057;-45
2023/05/14 10:41:09;;;;;;;22.98;16.73;;;;;;;19.29;64.41;101653.06;5031126;28;20116;-45
2023/05/14 10:43:37;;;;;;;24.42;17.38;;;;;;;19.27;63.94;101645.00;5030854;28;20028;-45
2023/05/14 10:46:02;;;;;;;24.52;17.20;;;;;;;19.43;63.38;101650.78;5030834;28;20029;-46
2023/05/14 10:48:28;;;;;;;23.65;16.90;;;;;;;19.30;63.48;101638.72;5031104;28;20022;-46
2023/05/14 10:50:54;;;;;;;24.00;16.40;;;;;;;19.35;63.34;101646.09;5030605;28;20124;-47
2023/05/14 10:53:30;;;;;;;23.85;16.33;;;;;;;19.53;63.93;101645.88;5030793;28;20104;-47
2023/05/14 10:55:55;;;;;;;22.70;16.25;;;;;;;19.64;62.33;101644.28;5030848;28;20021;-46
2023/05/14 10:58:21;;;;;;;22.83;15.77;;;;;;;19.52;61.19;101638.63;5030591;28;20034;-45
2023/05/14 11:00:48;;;;;;;23.42;16.45;;;;;;;19.62;60.73;101624.94;5031012;28;20457;-46
2023/05/14 11:03:15;;;;;;;23.13;16.83;;;;;;;19.70;60.65;101630.81;5029786;28;20685;-46